Time;durP1;ratioP1;P1;durP2;ratioP2;P2;SDS_P1;SDS_P2;PMS_P1;PMS_P2;Temp;Humidity;BMP_temperature;BMP_pressure;BME280_temperature;BME280_humidity;BME280_pressure;Samples;Min_cycle;Max_cycle;Signal;HPM_P1;HPM_P2
2022/07/17 00:01:09;;;;;;;2.00;1.38;;;;;;;20.30;41.48;100780.28;5074920;28;20123;-67
2022/07/17 00:03:37;;;;;;;5.20;1.80;;;;;;;20.26;41.48;100786.97;5074689;28;20397;-67
2022/07/17 00:06:07;;;;;;;3.20;1.40;;;;;;;20.26;41.43;100791.53;5074678;28;20486;-67
2022/07/17 00:08:36;;;;;;;3.50;1.55;;;;;;;20.17;41.76;100792.38;5056800;28;20072;-67
2022/07/17 00:11:04;;;;;;;5.20;1.52;;;;;;;20.19;41.47;100787.69;5074654;28;20048;-67
2022/07/17 00:13:32;;;;;;;3.60;1.40;;;;;;;19.98;41.89;100794.06;5074639;28;20068;-67
2022/07/17 00:16:02;;;;;;;3.17;1.42;;;;;;;19.99;42.18;100795.78;5074255;28;20036;-67
2022/07/17 00:18:31;;;;;;;3.08;1.40;;;;;;;19.93;42.40;100799.03;5053012;28;20123;-67
2022/07/17 00:21:00;;;;;;;5.70;1.70;;;;;;;19.72;43.28;100798.28;5053951;28;20049;-67
2022/07/17 00:23:28;;;;;;;3.45;1.48;;;;;;;19.72;42.97;100801.84;5054212;28;20083;-68
2022/07/17 00:25:56;;;;;;;2.95;1.40;;;;;;;19.75;43.03;100806.09;5053821;28;20095;-67
2022/07/17 00:28:25;;;;;;;4.47;1.90;;;;;;;19.61;43.64;100806.50;5054350;28;20048;-67
2022/07/17 00:30:53;;;;;;;3.88;1.42;;;;;;;19.57;43.72;100810.47;5053924;28;20064;-67
2022/07/17 00:33:23;;;;;;;2.72;1.42;;;;;;;19.55;43.87;100807.88;5054158;28;20069;-67
2022/07/17 00:35:51;;;;;;;3.28;1.40;;;;;;;19.49;44.29;100808.41;5053880;28;20060;-67
2022/07/17 00:38:21;;;;;;;4.72;1.63;;;;;;;19.42;44.51;100802.69;5052647;28;20134;-67
2022/07/17 00:40:49;;;;;;;4.45;1.60;;;;;;;19.42;44.68;100813.50;5053807;28;20051;-67
2022/07/17 00:43:17;;;;;;;5.45;1.50;;;;;;;19.34;45.21;100815.19;5054078;28;20068;-67
2022/07/17 00:45:46;;;;;;;3.78;1.48;;;;;;;19.18;45.25;100804.84;5053577;28;20068;-67
2022/07/17 00:48:15;;;;;;;3.15;1.83;;;;;;;19.19;45.26;100822.78;5053747;28;20049;-67
2022/07/17 00:50:45;;;;;;;3.38;1.60;;;;;;;19.11;45.81;100814.50;5053644;28;20139;-67
2022/07/17 00:53:13;;;;;;;5.70;1.80;;;;;;;19.19;45.46;100820.06;5053707;28;20488;-67
2022/07/17 00:55:42;;;;;;;3.83;1.52;;;;;;;19.14;45.74;100831.31;5052352;28;20044;-68
2022/07/17 00:58:17;;;;;;;2.50;1.40;;;;;;;19.09;46.07;100827.28;5053769;28;20045;-66
2022/07/17 01:00:46;;;;;;;6.75;1.60;;;;;;;19.05;45.89;100821.28;5053446;28;20036;-68
2022/07/17 01:03:15;;;;;;;4.70;1.73;;;;;;;18.99;46.29;100826.34;5053426;28;20069;-68
2022/07/17 01:05:45;;;;;;;4.28;1.48;;;;;;;18.83;46.86;100822.28;5053325;28;20041;-68
2022/07/17 01:08:14;;;;;;;4.20;1.85;;;;;;;18.95;46.87;100822.22;5052249;28;20490;-67
2022/07/17 01:10:43;;;;;;;3.38;1.70;;;;;;;18.99;46.51;100824.50;5053374;28;20044;-68
2022/07/17 01:13:11;;;;;;;2.80;1.58;;;;;;;18.86;46.85;100827.41;5053235;28;20496;-68
2022/07/17 01:15:42;;;;;;;4.60;1.83;;;;;;;18.86;46.65;100829.25;5053253;28;20048;-71
2022/07/17 01:18:12;;;;;;;3.08;1.65;;;;;;;18.64;47.63;100822.09;5063128;28;20144;-68
2022/07/17 01:20:43;;;;;;;3.90;1.60;;;;;;;18.53;47.86;100819.47;5073345;28;20048;-77
2022/07/17 01:23:13;;;;;;;3.85;1.95;;;;;;;18.53;48.22;100819.47;5073353;28;20067;-68
2022/07/17 01:25:43;;;;;;;3.75;1.80;;;;;;;18.44;49.00;100817.53;5055187;28;20052;-68
2022/07/17 01:28:13;;;;;;;3.38;1.60;;;;;;;18.50;48.36;100819.69;5073062;28;20048;-68
2022/07/17 01:30:47;;;;;;;4.45;1.52;;;;;;;18.63;47.93;100827.66;5073244;28;20036;-80
2022/07/17 01:33:16;;;;;;;3.42;1.60;;;;;;;18.44;48.34;100831.91;5073345;28;20086;-66
2022/07/17 01:35:45;;;;;;;3.30;1.60;;;;;;;18.52;48.43;100833.94;5072869;28;20041;-66
2022/07/17 01:38:15;;;;;;;2.58;1.60;;;;;;;18.57;48.32;100831.72;5072995;28;20386;-68
2022/07/17 01:40:44;;;;;;;4.15;1.50;;;;;;;18.40;48.78;100830.41;5072766;28;20542;-68
2022/07/17 01:43:12;;;;;;;4.50;1.73;;;;;;;18.37;48.80;100835.22;5055445;28;20106;-68
2022/07/17 01:45:41;;;;;;;2.15;1.35;;;;;;;18.43;48.89;100837.41;5073182;28;20041;-67
2022/07/17 01:48:10;;;;;;;4.50;1.63;;;;;;;18.41;48.97;100848.34;5073166;28;20047;-67
2022/07/17 01:50:38;;;;;;;3.03;1.42;;;;;;;18.41;48.87;100840.25;5073091;28;20036;-67
2022/07/17 01:53:07;;;;;;;6.47;1.60;;;;;;;18.26;49.57;100842.38;5072803;28;20390;-68
2022/07/17 01:55:37;;;;;;;4.68;1.90;;;;;;;18.12;50.16;100849.91;5073025;28;20044;-68
2022/07/17 01:58:05;;;;;;;3.28;1.52;;;;;;;18.01;50.54;100851.63;5054816;28;20390;-68
2022/07/17 02:00:34;;;;;;;4.00;1.45;;;;;;;17.96;51.26;100844.91;5072942;28;20047;-67
2022/07/17 02:03:02;;;;;;;3.72;1.70;;;;;;;18.16;50.14;100859.47;5072872;28;20478;-68
2022/07/17 02:05:30;;;;;;;2.63;1.50;;;;;;;18.19;50.21;100865.47;5073769;28;20095;-67
2022/07/17 02:07:59;;;;;;;2.67;1.40;;;;;;;18.03;50.70;100870.41;5076485;28;20049;-68
2022/07/17 02:10:28;;;;;;;5.20;1.60;;;;;;;18.07;50.72;100871.03;5059061;28;20135;-68
2022/07/17 02:12:58;;;;;;;6.32;1.85;;;;;;;17.90;51.23;100872.38;5076709;28;20128;-68
2022/07/17 02:15:26;;;;;;;3.95;1.73;;;;;;;17.92;51.54;100878.53;5077086;28;20048;-68
2022/07/17 02:17:55;;;;;;;3.10;1.60;;;;;;;17.92;51.35;100879.38;5076135;28;20060;-68
2022/07/17 02:20:24;;;;;;;6.38;1.70;;;;;;;17.92;51.41;100879.38;5076609;28;20045;-67
2022/07/17 02:22:53;;;;;;;3.20;1.60;;;;;;;17.85;51.67;100877.28;5076276;28;20079;-68
2022/07/17 02:25:21;;;;;;;4.93;1.75;;;;;;;17.63;52.34;100872.72;5076727;28;20040;-67
2022/07/17 02:27:51;;;;;;;3.80;1.75;;;;;;;17.57;52.51;100874.09;5076295;28;20094;-68
2022/07/17 02:30:20;;;;;;;2.85;1.60;;;;;;;17.53;52.80;100882.53;5076354;28;20075;-68
2022/07/17 02:32:48;;;;;;;3.25;1.60;;;;;;;17.39;53.47;100878.25;5075992;28;20123;-68
2022/07/17 02:35:17;;;;;;;3.13;1.80;;;;;;;17.37;53.38;100885.56;5058610;28;20087;-67
2022/07/17 02:37:45;;;;;;;2.78;1.67;;;;;;;17.40;53.23;100886.22;5058452;28;20127;-79
2022/07/17 02:40:14;;;;;;;4.25;1.83;;;;;;;17.36;53.16;100886.56;5076249;28;20044;-68
2022/07/17 02:42:43;;;;;;;4.55;1.77;;;;;;;17.46;52.62;100884.84;5076129;28;20040;-67
2022/07/17 02:45:11;;;;;;;2.53;1.58;;;;;;;17.49;52.68;100891.88;5058109;28;20053;-68
2022/07/17 02:47:42;;;;;;;3.38;1.45;;;;;;;17.51;52.18;100896.16;5076288;28;20040;-68
2022/07/17 02:50:10;;;;;;;2.35;1.50;;;;;;;17.41;53.00;100895.16;5074778;28;20056;-67
2022/07/17 02:52:39;;;;;;;5.65;1.85;;;;;;;17.36;53.08;100895.50;5076021;28;20036;-68
2022/07/17 02:55:09;;;;;;;4.15;1.63;;;;;;;17.40;52.67;100893.44;5075768;28;20036;-67
2022/07/17 02:57:37;;;;;;;5.63;1.70;;;;;;;17.33;52.82;100892.19;5076172;28;20064;-68
2022/07/17 03:00:09;;;;;;;4.40;1.80;;;;;;;17.30;52.77;100887.91;5075536;28;20052;-68
2022/07/17 03:02:38;;;;;;;3.17;1.50;;;;;;;17.25;52.72;100891.94;5076131;28;20044;-68
2022/07/17 03:05:09;;;;;;;4.30;1.48;;;;;;;17.33;52.56;100901.16;5075808;28;20660;-67
2022/07/17 03:07:37;;;;;;;4.00;1.80;;;;;;;17.31;52.48;100899.56;5075864;28;20044;-68
2022/07/17 03:10:07;;;;;;;4.00;1.70;;;;;;;17.36;52.42;100898.19;5075314;28;20044;-69
2022/07/17 03:12:36;;;;;;;5.55;1.67;;;;;;;17.34;52.00;100899.31;5076308;28;20045;-67
2022/07/17 03:15:05;;;;;;;2.95;1.48;;;;;;;17.39;51.67;100902.53;5075344;28;20386;-68
2022/07/17 03:17:34;;;;;;;5.75;1.65;;;;;;;17.47;51.37;100908.19;5075819;28;20162;-68
2022/07/17 03:20:03;;;;;;;4.70;1.63;;;;;;;17.54;50.71;100911.22;5075633;28;20090;-68
2022/07/17 03:22:33;;;;;;;3.67;1.55;;;;;;;17.53;50.97;100915.75;5075411;28;20102;-67
2022/07/17 03:25:01;;;;;;;4.70;1.55;;;;;;;17.47;50.87;100916.25;5057101;28;20144;-67
2022/07/17 03:27:30;;;;;;;3.38;1.30;;;;;;;17.58;50.46;100918.13;5075407;28;20041;-68
2022/07/17 03:29:58;;;;;;;5.03;1.58;;;;;;;17.54;50.63;100917.47;5075294;28;20036;-67
2022/07/17 03:32:26;;;;;;;2.25;1.30;;;;;;;17.61;50.09;100915.16;5075655;28;20040;-68
2022/07/17 03:34:55;;;;;;;7.18;1.90;;;;;;;17.59;50.57;100920.69;5075170;28;20466;-68
2022/07/17 03:37:23;;;;;;;5.50;1.50;;;;;;;17.62;50.20;100923.13;5075187;28;20096;-68
2022/07/17 03:39:53;;;;;;;3.63;1.50;;;;;;;17.78;49.56;100932.75;5075176;28;20041;-68
2022/07/17 03:42:21;;;;;;;3.42;1.50;;;;;;;17.89;49.10;100933.59;5075260;28;20048;-68
2022/07/17 03:44:50;;;;;;;3.72;1.60;;;;;;;17.87;49.65;100940.13;5074928;28;20045;-71
2022/07/17 03:47:18;;;;;;;4.18;1.40;;;;;;;18.20;48.18;100945.50;5074980;28;20051;-68
2022/07/17 03:49:46;;;;;;;2.17;1.40;;;;;;;18.50;48.08;100943.97;5074810;28;20402;-68
2022/07/17 03:52:15;;;;;;;3.13;1.70;;;;;;;19.49;45.72;100946.38;5075133;28;20083;-68
2022/07/17 03:54:44;;;;;;;3.92;1.45;;;;;;;20.81;41.94;100949.06;5074994;28;20051;-67
2022/07/17 03:57:13;;;;;;;3.15;1.45;;;;;;;21.38;40.71;100940.09;5074770;28;20123;-67
2022/07/17 03:59:42;;;;;;;4.45;1.50;;;;;;;22.36;38.76;100940.63;5074728;28;20055;-67
2022/07/17 04:02:10;;;;;;;3.63;1.52;;;;;;;22.53;38.08;100939.81;5074400;28;20052;-67
2022/07/17 04:04:38;;;;;;;4.57;1.52;;;;;;;23.05;37.50;100948.16;5074582;28;20040;-67
2022/07/17 04:07:26;;;;;;;3.33;1.50;;;;;;;23.26;36.44;100948.72;5074515;28;20120;-67
2022/07/17 04:09:56;;;;;;;3.15;1.35;;;;;;;23.42;36.18;100958.88;5074524;28;20477;-67
2022/07/17 04:12:27;;;;;;;4.57;1.30;;;;;;;23.98;34.93;100954.84;5074522;28;20036;-67
2022/07/17 04:14:55;;;;;;;3.13;1.30;;;;;;;23.61;35.08;100963.28;5074092;28;20047;-67
2022/07/17 04:17:24;;;;;;;1.88;1.35;;;;;;;23.33;35.76;100954.38;5074089;28;20094;-67
2022/07/17 04:19:53;;;;;;;2.00;1.15;;;;;;;24.10;34.19;100959.00;5074392;28;20048;-68
2022/07/17 04:22:21;;;;;;;3.08;1.33;;;;;;;24.41;34.03;100967.50;5074543;28;20508;-67
2022/07/17 04:24:50;;;;;;;4.38;1.40;;;;;;;23.70;34.63;100962.34;5074377;28;20052;-67
2022/07/17 04:27:18;;;;;;;2.88;1.20;;;;;;;24.28;34.02;100972.53;5074193;28;20044;-67
2022/07/17 04:29:48;;;;;;;3.38;1.40;;;;;;;24.61;33.67;100968.09;5055920;28;20429;-67
2022/07/17 04:32:17;;;;;;;2.75;1.50;;;;;;;25.80;31.93;100974.03;5073878;28;20094;-67
2022/07/17 04:34:45;;;;;;;3.70;1.27;;;;;;;25.07;32.46;100972.13;5074066;28;20068;-67
2022/07/17 04:37:14;;;;;;;3.28;1.30;;;;;;;25.16;32.40;100974.88;5073783;28;20478;-67
2022/07/17 04:39:43;;;;;;;3.88;1.48;;;;;;;25.35;32.08;100983.59;5074154;28;20548;-68
2022/07/17 04:42:11;;;;;;;1.90;1.10;;;;;;;25.49;32.01;100978.47;5074191;28;20036;-67
2022/07/17 04:44:39;;;;;;;2.80;1.20;;;;;;;25.02;32.09;100985.44;5073896;28;20068;-67
2022/07/17 04:47:09;;;;;;;3.75;1.70;;;;;;;25.51;31.66;100977.28;5055855;28;20135;-67
2022/07/17 04:49:37;;;;;;;3.67;1.17;;;;;;;25.67;31.80;100982.72;5073870;28;20102;-67
2022/07/17 04:52:05;;;;;;;2.92;1.20;;;;;;;25.94;30.87;100980.66;5073484;28;20052;-67
2022/07/17 04:54:34;;;;;;;2.25;1.35;;;;;;;25.42;31.47;100988.38;5073536;28;20588;-67
2022/07/17 04:57:02;;;;;;;3.20;1.15;;;;;;;25.16;31.90;100988.53;5073348;28;20049;-67
2022/07/17 04:59:30;;;;;;;2.13;1.10;;;;;;;25.86;31.16;100986.13;5073777;28;20064;-67
2022/07/17 05:01:59;;;;;;;2.55;1.27;;;;;;;24.94;32.17;100995.47;5073220;28;20044;-67
2022/07/17 05:04:28;;;;;;;1.90;1.10;;;;;;;25.46;31.58;100987.84;5073547;28;20083;-67
2022/07/17 05:06:57;;;;;;;3.17;1.23;;;;;;;26.04;30.28;100988.66;5073130;28;20121;-67
2022/07/17 05:09:25;;;;;;;3.28;1.00;;;;;;;26.66;29.76;100989.63;5073843;28;20044;-67
2022/07/17 05:11:54;;;;;;;2.60;1.23;;;;;;;25.44;31.05;100992.63;5073380;28;20452;-67
2022/07/17 05:14:22;;;;;;;3.65;1.25;;;;;;;26.62;29.64;100993.75;5073418;28;20044;-67
2022/07/17 05:16:51;;;;;;;3.70;1.35;;;;;;;26.47;29.67;101001.03;5073354;28;20052;-67
2022/07/17 05:19:19;;;;;;;2.90;1.20;;;;;;;26.58;29.67;100997.03;5072861;28;20447;-68
2022/07/17 05:21:49;;;;;;;2.97;1.30;;;;;;;26.93;29.07;100995.66;5073351;28;20054;-67
2022/07/17 05:24:18;;;;;;;2.55;1.17;;;;;;;25.42;31.00;101000.16;5073190;28;20047;-67
2022/07/17 05:26:46;;;;;;;3.13;1.30;;;;;;;25.40;31.36;101004.94;5055585;28;20060;-67
2022/07/17 05:29:15;;;;;;;1.88;1.13;;;;;;;26.30;29.61;100993.88;5072933;28;20064;-67
2022/07/17 05:31:43;;;;;;;4.28;1.30;;;;;;;26.91;29.01;101014.13;5073043;28;20119;-67
2022/07/17 05:34:12;;;;;;;3.28;1.02;;;;;;;26.62;29.22;101004.69;5072728;28;20040;-67
2022/07/17 05:36:41;;;;;;;5.57;1.17;;;;;;;26.25;30.13;101006.19;5073119;28;20047;-67
2022/07/17 05:39:11;;;;;;;3.28;1.27;;;;;;;26.08;29.90;101007.28;5072956;28;20094;-67
2022/07/17 05:41:39;;;;;;;4.78;1.20;;;;;;;26.30;29.50;101005.66;5072350;28;20044;-67
2022/07/17 05:44:08;;;;;;;2.67;1.30;;;;;;;25.81;30.16;101016.72;5072835;28;20043;-67
2022/07/17 05:46:36;;;;;;;2.65;1.10;;;;;;;26.15;29.82;101004.66;5072960;28;20512;-67
2022/07/17 05:49:04;;;;;;;2.47;1.10;;;;;;;25.75;30.58;101017.41;5054865;28;20082;-67
2022/07/17 05:51:32;;;;;;;3.90;1.30;;;;;;;26.70;29.13;101009.28;5073142;28;20055;-67
2022/07/17 05:54:01;;;;;;;2.05;1.10;;;;;;;27.41;27.99;101004.56;5072700;28;20119;-68
2022/07/17 05:56:30;;;;;;;2.65;1.00;;;;;;;27.61;27.84;101005.78;5072924;28;20044;-68
2022/07/17 05:58:59;;;;;;;2.20;1.08;;;;;;;26.70;29.00;101012.88;5072512;28;20481;-68
2022/07/17 06:01:27;;;;;;;1.90;1.10;;;;;;;25.85;30.00;101017.22;5072878;28;20051;-67
2022/07/17 06:03:56;;;;;;;2.30;1.20;;;;;;;26.75;29.25;101015.94;5073054;28;20488;-67
2022/07/17 06:06:24;;;;;;;2.03;1.00;;;;;;;26.38;29.71;101013.03;5072841;28;20044;-68
2022/07/17 06:08:53;;;;;;;2.10;1.00;;;;;;;27.18;28.19;101013.63;5053513;28;20066;-68
2022/07/17 06:11:22;;;;;;;2.80;1.17;;;;;;;27.65;27.68;101018.06;5072338;28;20477;-68
2022/07/17 06:13:58;;;;;;;2.63;1.20;;;;;;;27.80;26.88;101018.13;5072974;28;20048;-68
2022/07/17 06:16:27;;;;;;;3.92;1.00;;;;;;;27.15;27.52;101027.69;5072787;28;20044;-67
2022/07/17 06:18:55;;;;;;;3.63;0.80;;;;;;;27.05;26.86;101029.81;5072732;28;20059;-68
2022/07/17 06:21:23;;;;;;;2.90;1.15;;;;;;;27.03;27.64;101030.00;5072402;28;20408;-68
2022/07/17 06:23:52;;;;;;;4.68;1.15;;;;;;;28.23;25.62;101032.91;5072604;28;20043;-68
2022/07/17 06:26:20;;;;;;;3.05;1.00;;;;;;;27.57;26.63;101026.34;5072282;28;20044;-68
2022/07/17 06:28:49;;;;;;;2.65;1.05;;;;;;;27.05;27.53;101044.34;5072840;28;20162;-68
2022/07/17 06:31:19;;;;;;;4.30;1.20;;;;;;;27.13;26.51;101046.19;5072489;28;20100;-68
2022/07/17 06:33:47;;;;;;;4.10;1.20;;;;;;;27.26;26.48;101030.00;5054609;28;20079;-68
2022/07/17 06:36:15;;;;;;;2.38;0.98;;;;;;;27.40;25.89;101044.78;5054253;28;20048;-68
2022/07/17 06:38:43;;;;;;;2.60;0.90;;;;;;;26.85;26.14;101047.69;5072346;28;20044;-67
2022/07/17 06:41:12;;;;;;;2.53;1.02;;;;;;;27.38;25.79;101039.50;5072392;28;20040;-68
2022/07/17 06:43:40;;;;;;;3.10;1.08;;;;;;;27.25;25.92;101039.25;5072654;28;20045;-68
2022/07/17 06:46:09;;;;;;;1.42;0.82;;;;;;;27.81;24.70;101034.38;5072280;28;20044;-68
2022/07/17 06:48:38;;;;;;;3.72;1.05;;;;;;;28.55;24.46;101041.84;5072341;28;20037;-68
2022/07/17 06:51:07;;;;;;;1.73;0.85;;;;;;;27.91;25.10;101037.72;5072348;28;20063;-68
2022/07/17 06:53:35;;;;;;;2.33;1.00;;;;;;;27.94;24.73;101037.34;5076069;28;20051;-68
2022/07/17 06:56:04;;;;;;;3.60;1.10;;;;;;;28.29;24.52;101032.22;5075607;28;20048;-68
2022/07/17 06:58:32;;;;;;;1.92;0.93;;;;;;;28.52;24.34;101043.06;5075850;28;20097;-68
2022/07/17 07:01:01;;;;;;;4.85;1.10;;;;;;;27.18;25.28;101034.69;5057877;28;20405;-79
2022/07/17 07:03:29;;;;;;;1.85;0.80;;;;;;;27.30;24.88;101041.44;5057702;28;20121;-68
2022/07/17 07:05:59;;;;;;;2.65;1.00;;;;;;;26.47;25.97;101042.06;5057727;28;20053;-67
2022/07/17 07:08:27;;;;;;;2.08;0.93;;;;;;;25.18;27.15;101061.03;5058137;28;20210;-67
2022/07/17 07:10:56;;;;;;;2.05;0.88;;;;;;;24.27;28.57;101052.63;5075598;28;20036;-67
2022/07/17 07:13:24;;;;;;;1.85;0.80;;;;;;;24.96;27.34;101054.28;5075377;28;20451;-67
2022/07/17 07:15:52;;;;;;;2.70;1.00;;;;;;;24.06;28.26;101049.41;5075435;28;20044;-67
2022/07/17 07:18:22;;;;;;;2.20;1.08;;;;;;;23.70;29.21;101044.91;5075501;28;20061;-68
2022/07/17 07:20:50;;;;;;;2.40;0.98;;;;;;;23.52;29.36;101056.78;5075666;28;20045;-67
2022/07/17 07:23:20;;;;;;;2.20;0.95;;;;;;;23.64;29.43;101061.00;5075337;28;20045;-67
2022/07/17 07:25:48;;;;;;;2.72;1.15;;;;;;;23.72;30.03;101058.34;5075521;28;20048;-67
2022/07/17 07:28:16;;;;;;;4.20;0.90;;;;;;;23.04;30.51;101064.31;5075360;28;20044;-67
2022/07/17 07:30:45;;;;;;;3.60;1.20;;;;;;;23.33;30.53;101053.22;5057099;28;20076;-67
2022/07/17 07:33:13;;;;;;;2.88;1.00;;;;;;;23.67;30.04;101055.25;5057179;28;20048;-67
2022/07/17 07:35:42;;;;;;;3.08;0.90;;;;;;;23.78;29.57;101049.56;5075146;28;20068;-67
2022/07/17 07:38:11;;;;;;;1.88;0.90;;;;;;;23.59;29.57;101050.59;5075024;28;20592;-67
2022/07/17 07:40:41;;;;;;;3.28;1.13;;;;;;;23.73;29.49;101056.47;5075084;28;20097;-67
2022/07/17 07:43:09;;;;;;;2.00;0.80;;;;;;;23.58;29.36;101056.19;5074823;28;20068;-68
2022/07/17 07:45:38;;;;;;;2.25;0.90;;;;;;;23.32;29.71;101067.84;5075199;28;20090;-67
2022/07/17 07:48:06;;;;;;;2.00;0.90;;;;;;;23.15;30.25;101063.22;5074833;28;20044;-67
2022/07/17 07:50:35;;;;;;;2.60;1.10;;;;;;;22.79;30.93;101065.88;5075010;28;20041;-67
2022/07/17 07:53:03;;;;;;;2.30;0.85;;;;;;;22.66;31.05;101069.94;5074954;28;20383;-67
2022/07/17 07:55:32;;;;;;;1.90;1.00;;;;;;;22.77;31.57;101067.03;5056607;28;20049;-68
2022/07/17 07:58:07;;;;;;;1.70;0.93;;;;;;;22.68;31.07;101060.66;5074922;28;20067;-67
2022/07/17 08:00:36;;;;;;;2.40;0.90;;;;;;;22.55;31.38;101060.13;5057103;28;20045;-67
2022/07/17 08:03:05;;;;;;;4.85;1.00;;;;;;;22.69;31.12;101059.63;5073795;28;20049;-78
2022/07/17 08:05:34;;;;;;;2.08;0.77;;;;;;;22.68;31.41;101068.81;5074716;28;20051;-67
2022/07/17 08:08:03;;;;;;;4.75;1.35;;;;;;;22.28;31.97;101063.66;5074492;28;20044;-68
2022/07/17 08:10:31;;;;;;;3.25;1.15;;;;;;;22.66;31.80;101061.78;5056617;28;20072;-67
2022/07/17 08:13:00;;;;;;;2.47;0.95;;;;;;;22.60;30.90;101060.53;5074755;28;20044;-67
2022/07/17 08:15:30;;;;;;;2.33;0.90;;;;;;;22.57;31.36;101055.38;5074294;28;20481;-67
2022/07/17 08:17:59;;;;;;;2.30;1.10;;;;;;;22.56;30.77;101059.13;5053103;28;20053;-67
2022/07/17 08:20:28;;;;;;;4.47;1.10;;;;;;;22.87;30.94;101061.56;5053950;28;20079;-67
2022/07/17 08:22:56;;;;;;;2.40;1.02;;;;;;;23.17;31.56;101074.00;5052932;28;20106;-67
2022/07/17 08:25:34;;;;;;;1.90;1.00;;;;;;;22.87;32.25;101069.72;5054275;28;20044;-67
2022/07/17 08:28:06;;;;;;;2.10;1.08;;;;;;;22.90;32.05;101072.16;5054334;28;20048;-67
2022/07/17 08:30:36;;;;;;;3.03;0.93;;;;;;;22.95;32.03;101069.81;5054153;28;20508;-67
2022/07/17 08:33:06;;;;;;;2.85;1.17;;;;;;;23.24;31.53;101073.19;5053977;28;20512;-68
2022/07/17 08:35:35;;;;;;;3.08;1.17;;;;;;;23.02;31.25;101084.53;5053993;28;20049;-67
2022/07/17 08:38:04;;;;;;;1.88;0.75;;;;;;;23.02;30.64;101082.66;5054228;28;20075;-67
2022/07/17 08:40:34;;;;;;;2.90;1.02;;;;;;;22.95;31.34;101077.97;5054182;28;20052;-67
2022/07/17 08:43:05;;;;;;;2.72;0.95;;;;;;;22.92;31.16;101075.56;5053921;28;20037;-68
2022/07/17 08:45:34;;;;;;;4.38;1.35;;;;;;;23.08;31.38;101070.31;5052666;28;20144;-67
2022/07/17 08:48:04;;;;;;;2.20;1.10;;;;;;;23.16;31.45;101073.09;5052493;28;20452;-67
2022/07/17 08:50:35;;;;;;;2.65;1.08;;;;;;;23.00;31.67;101072.94;5054073;28;20468;-67
2022/07/17 08:53:04;;;;;;;2.20;1.02;;;;;;;22.92;31.26;101075.56;5053925;28;20120;-67
2022/07/17 08:55:32;;;;;;;1.85;0.90;;;;;;;22.84;31.55;101063.56;5053617;28;20040;-67
2022/07/17 08:58:01;;;;;;;2.22;1.00;;;;;;;23.14;32.28;101065.09;5053486;28;20037;-68
2022/07/17 09:00:30;;;;;;;2.22;0.95;;;;;;;23.42;30.77;101063.16;5053452;28;20067;-67
2022/07/17 09:03:01;;;;;;;2.05;1.02;;;;;;;23.18;30.78;101076.56;5053746;28;20477;-68
2022/07/17 09:05:32;;;;;;;4.78;1.20;;;;;;;23.28;30.11;101065.59;5053240;28;20144;-67
2022/07/17 09:08:01;;;;;;;3.25;0.98;;;;;;;23.12;30.20;101063.56;5052478;28;20469;-67
2022/07/17 09:10:34;;;;;;;4.55;1.00;;;;;;;23.17;30.34;101055.78;5053428;28;20044;-67
2022/07/17 09:13:14;;;;;;;2.35;0.90;;;;;;;23.22;29.91;101067.06;5053417;28;20367;-67
2022/07/17 09:15:43;;;;;;;3.38;0.95;;;;;;;23.19;29.71;101053.78;5053247;28;20048;-67
2022/07/17 09:18:14;;;;;;;2.58;1.00;;;;;;;23.33;29.95;101053.22;5051589;28;20092;-67
2022/07/17 09:20:48;;;;;;;3.20;1.23;;;;;;;23.34;29.97;101062.22;5035576;28;20056;-67
2022/07/17 09:23:18;;;;;;;2.65;0.80;;;;;;;23.11;30.36;101064.56;5053195;28;20402;-67
2022/07/17 09:25:49;;;;;;;2.58;0.90;;;;;;;23.19;30.17;101071.97;5053018;28;20076;-66
2022/07/17 09:28:20;;;;;;;3.03;1.00;;;;;;;22.99;30.46;101057.63;5053189;28;20095;-67
2022/07/17 09:30:51;;;;;;;2.90;1.00;;;;;;;23.27;30.47;101050.28;5053111;28;20398;-67
2022/07/17 09:33:22;;;;;;;3.30;1.05;;;;;;;23.30;30.82;101056.25;5052882;28;20080;-67
2022/07/17 09:35:53;;;;;;;4.70;1.20;;;;;;;23.68;30.06;101062.41;5053115;28;20462;-67
2022/07/17 09:38:31;;;;;;;3.22;0.88;;;;;;;23.40;30.03;101048.88;5052913;28;20068;-67
2022/07/17 09:41:15;;;;;;;2.17;1.02;;;;;;;23.58;29.76;101051.59;5053233;28;20439;-67
2022/07/17 09:43:48;;;;;;;3.85;1.20;;;;;;;23.54;30.06;101044.72;5053085;28;20103;-67
2022/07/17 09:46:19;;;;;;;1.58;0.98;;;;;;;23.55;29.98;101045.59;5034988;28;20447;-67
2022/07/17 09:48:49;;;;;;;2.35;1.05;;;;;;;23.53;30.19;101039.44;5035347;28;20041;-67
2022/07/17 09:51:22;;;;;;;4.05;1.08;;;;;;;23.64;30.17;101044.66;5052893;28;20049;-67
2022/07/17 09:53:51;;;;;;;;;;;;;;;23.77;29.50;101036.97;5053482;28;20167;-67
2022/07/17 09:56:21;;;;;;;3.92;1.13;;;;;;;23.64;29.15;101044.66;5034810;28;20285;-67
2022/07/17 09:58:51;;;;;;;2.20;0.98;;;;;;;23.69;28.72;101034.16;5052773;28;20068;-67
2022/07/17 10:01:21;;;;;;;3.05;1.02;;;;;;;23.69;28.45;101042.34;5052812;28;20045;-67
2022/07/17 10:03:53;;;;;;;4.28;1.10;;;;;;;23.75;28.04;101041.72;5052881;28;20037;-67
2022/07/17 10:06:24;;;;;;;2.92;1.13;;;;;;;23.77;28.83;101042.41;5052626;28;20060;-67
2022/07/17 10:08:54;;;;;;;1.92;0.90;;;;;;;24.02;27.94;101045.28;5052676;28;20120;-67
2022/07/17 10:11:24;;;;;;;2.60;1.00;;;;;;;24.15;28.86;101048.47;5034608;28;20470;-67
2022/07/17 10:13:55;;;;;;;3.10;1.17;;;;;;;23.87;28.68;101050.47;5052635;28;20045;-67
2022/07/17 10:16:26;;;;;;;2.58;1.02;;;;;;;23.68;29.30;101037.91;5052628;28;20065;-67
2022/07/17 10:18:57;;;;;;;4.78;1.02;;;;;;;23.86;29.61;101044.19;5050716;28;20420;-67
2022/07/17 10:21:30;;;;;;;3.25;1.00;;;;;;;23.79;29.14;101040.38;5054366;28;20052;-67
2022/07/17 10:24:09;;;;;;;1.77;0.77;;;;;;;23.82;29.16;101040.03;5072901;28;20047;-67
2022/07/17 10:26:44;;;;;;;3.40;1.20;;;;;;;23.67;28.86;101050.69;5074077;28;20051;-67
2022/07/17 10:29:28;;;;;;;2.67;1.10;;;;;;;24.05;28.97;101036.81;5058318;28;20132;-69
2022/07/17 10:31:58;;;;;;;3.40;1.15;;;;;;;23.88;29.36;101031.25;5076348;28;20397;-67
2022/07/17 10:34:41;;;;;;;6.38;1.30;;;;;;;24.13;29.50;101025.97;5076082;28;20036;-67
2022/07/17 10:37:19;;;;;;;2.47;1.15;;;;;;;24.39;28.92;101023.22;5076469;28;20478;-67
2022/07/17 10:40:05;;;;;;;2.47;1.20;;;;;;;24.34;28.05;101020.16;5076403;28;20036;-67
2022/07/17 10:43:01;;;;;;;3.13;1.20;;;;;;;24.22;27.54;101027.69;5076028;28;20066;-67
2022/07/17 10:45:35;;;;;;;2.47;0.98;;;;;;;24.29;28.22;101036.94;5029883;28;20056;-67
2022/07/17 10:48:06;;;;;;;3.00;1.33;;;;;;;24.27;28.31;101019.91;5076389;28;20482;-67
2022/07/17 10:50:38;;;;;;;3.08;0.85;;;;;;;24.41;28.11;101029.34;5076070;28;20406;-67
2022/07/17 10:53:17;;;;;;;4.10;1.10;;;;;;;24.11;27.90;101022.53;5058389;28;20048;-67
2022/07/17 10:55:53;;;;;;;5.95;1.23;;;;;;;24.32;28.67;101023.03;5076043;28;20043;-67
2022/07/17 10:58:25;;;;;;;3.88;1.20;;;;;;;24.39;27.30;101013.16;5075662;28;20075;-67
2022/07/17 11:01:06;;;;;;;3.30;1.50;;;;;;;24.75;27.14;101015.69;5076187;28;20045;-67
2022/07/17 11:03:41;;;;;;;4.22;1.15;;;;;;;24.88;27.29;101017.94;5074463;28;20288;-67
2022/07/17 11:06:14;;;;;;;3.33;1.20;;;;;;;24.82;27.53;101014.03;5075897;28;20067;-67
2022/07/17 11:08:45;;;;;;;;;;;;;;;24.99;26.79;101007.56;5076172;28;20132;-66
2022/07/17 11:11:14;;;;;;;1.85;0.85;;;;;;;24.79;26.88;101009.72;5075966;28;19927;-66
2022/07/17 11:13:53;;;;;;;3.05;1.10;;;;;;;24.84;27.04;101006.53;5057621;28;20096;-66
2022/07/17 11:16:26;;;;;;;2.13;1.05;;;;;;;24.68;26.47;101003.72;5075549;28;20052;-67
2022/07/17 11:18:56;;;;;;;3.85;1.23;;;;;;;24.70;26.73;100988.03;5075969;28;20135;-66
2022/07/17 11:21:24;;;;;;;2.83;1.40;;;;;;;24.74;26.24;100981.25;5075339;28;20045;-67
2022/07/17 11:23:55;;;;;;;2.55;1.10;;;;;;;24.94;26.37;100999.03;5057399;28;20485;-67
2022/07/17 11:26:25;;;;;;;2.40;1.00;;;;;;;24.57;26.12;100993.13;5075503;28;20508;-67
2022/07/17 11:28:54;;;;;;;3.85;1.17;;;;;;;24.78;25.13;100988.06;5075552;28;20072;-67
2022/07/17 11:31:29;;;;;;;2.42;1.10;;;;;;;24.95;25.23;100992.56;5057192;28;20517;-66
2022/07/17 11:34:00;;;;;;;3.75;1.00;;;;;;;24.92;25.33;100979.25;5075540;28;20041;-66
2022/07/17 11:36:32;;;;;;;1.83;0.98;;;;;;;25.01;25.35;100980.97;5074906;28;20045;-66
2022/07/17 11:39:05;;;;;;;2.55;1.00;;;;;;;24.76;25.78;100976.47;5074013;28;20044;-66